Nearby METAR Reports

 

KIND - Indianapolis, Indiana, USA
Distance from station: SW 6mi, 9km
Updated: Jul 12 2020 12:54pm
Partly Cloudy
Partly Cloudy
 Wind from W
Wind: W 7 mph , 11 km/h
Temperature: 79°F , 26°C
Dew Point: 63°F , 17°C
Humidity: 58%
Barometer: 29.86 inHg , 1011.2 hPa
Clouds: Partly Cloudy
Visibility: 10 miles , 16 km
Cloud details: Partly Cloudy 4000 ft
Partly Cloudy 23000 ft
2020/07/12 16:54 KIND 121654Z 26006KT 10SM SCT040 SCT230 26/17 A2986 RMK AO2 SLP105 T02560172 $
KEYE - Indianapolis, Indiana, USA
Distance from station: NW 5mi, 8km
Updated: Jul 12 2020 1:11pm
unable to load KEYE data RC=
unable to load KEYE data RC=
 
 
KTYQ - Indianapolis Exc, Indiana, USA
Distance from station: N 17mi, 28km
Updated: Jul 12 2020 12:55pm
Mostly Cloudy
Mostly Cloudy
 Wind from SE
Wind: SE 3 mph , 6 km/h
Temperature: 75°F , 24°C
Dew Point: 70°F , 21°C
Humidity: 83%
Barometer: 29.87 inHg , 1011.5 hPa
Clouds: Mostly Cloudy
Visibility: 10 miles , 16 km
Cloud details: Mostly Cloudy 2400 ft
Mostly Cloudy 3200 ft
2020/07/12 16:55 KTYQ 121655Z AUTO 14003KT 10SM BKN024 BKN032 24/21 A2987 RMK AO2 T02360207
KGEZ - Shelbyville, Indiana, USA
Distance from station: ESE 27mi, 43km
Updated: Jul 12 2020 12:53pm
Partly Cloudy
Partly Cloudy
 Wind from WSW
Wind: WSW 6 mph , 9 km/h
Temperature: 79°F , 26°C
Dew Point: 64°F , 18°C
Humidity: 61%
Barometer: 29.86 inHg , 1011.2 hPa
Clouds: Partly Cloudy
Visibility: 10 miles , 16 km
Cloud details: Partly Cloudy 5500 ft
Partly Cloudy 7500 ft
2020/07/12 16:53 KGEZ 121653Z AUTO 25005KT 10SM SCT055 SCT075 26/18 A2986 RMK AO2 SLP105 T02610178
 
KAID - Anderson Municip, Indiana, USA
Distance from station: NE 40mi, 64km
Updated: Jul 12 2020 9:35am
NOT Current
Mostly Cloudy
Mostly Cloudy
 Wind from WNW
Wind: WNW 9 mph , 15 km/h
Temperature: 68°F , 20°C
Dew Point: 64°F , 18°C
Humidity: 88%
Barometer: 29.88 inHg , 1011.9 hPa
Clouds: Mostly Cloudy
Visibility: 10 miles , 16 km
Cloud details: Mostly Cloudy 900 ft
Mostly Cloudy 6500 ft
2020/07/12 13:35 KAID 121335Z AUTO 29008KT 10SM BKN009 BKN065 20/18 A2988 RMK AO2 T01960175
KBAK - Columbus/Balkala, Indiana, USA
Distance from station: SSE 40mi, 64km
Updated: Jul 12 2020 12:45pm
Partly Cloudy
Partly Cloudy
 Wind from calm
Wind: Calm
Temperature: 77°F , 25°C
Dew Point: 64°F , 18°C
Humidity: 65%
Barometer: 29.87 inHg , 1011.5 hPa
Clouds: Partly Cloudy
Visibility: 10 miles , 16 km
Cloud details: Partly Cloudy 4300 ft
2020/07/12 16:45 KBAK 121645Z 00000KT 10SM SCT043 25/18 A2987
 
KBMG - Bloomington, Indiana, USA
Distance from station: SSW 48mi, 78km
Updated: Jul 12 2020 12:53pm
Light rain, Overcast
Light rain, Overcast
 Wind from varies
Wind: varies 3 mph , 6 km/h
Temperature: 75°F , 24°C
Dew Point: 66°F , 19°C
Humidity: 74%
Barometer: 29.87 inHg , 1011.5 hPa
Summary: Light Rain
Clouds: Overcast
Visibility: 10 miles , 16 km
Cloud details: Few Clouds 5000 ft
Mostly Cloudy 7000 ft
Overcast 9500 ft
2020/07/12 16:53 KBMG 121653Z VRB03KT 10SM -RA FEW050 BKN070 OVC095 24/19 A2987 RMK AO2 RAB36 SLP108 P0000 T02390194
KOKK - Kokomo, Indiana, USA
Distance from station: N 53mi, 85km
Updated: Jul 12 2020 12:56pm
Mostly Cloudy
Mostly Cloudy
 Wind from W
Wind: W 8 mph , 13 km/h
Temperature: 77°F , 25°C
Dew Point: 70°F , 21°C
Humidity: 79%
Barometer: 29.87 inHg , 1011.5 hPa
Clouds: Mostly Cloudy
Visibility: 10 miles , 16 km
Cloud details: Mostly Cloudy 1900 ft
Mostly Cloudy 2600 ft
2020/07/12 16:56 KOKK 121656Z AUTO 28007KT 10SM BKN019 BKN026 25/21 A2987 RMK AO2 RAE1557 SLP112 P0001 T02500206